Mullan Pass, MT

8:07 AM MDT on March 25, 2017 (GMT -0600)
Mullan Pass | | Change Station

Elev 6027 ft 47.45 °N, 115.68 °W | Updated 14 minutes ago

Snow
Snow
28 °F
Feels Like 24 °F
N
4
Wind Variable Wind from Variable

Today
High -- | Low -- °F
--% Chance of Precip.
Yesterday
High -- | Low -- °F
Precip. -- in
Pressure 30.06 in
Visibility 0.5 miles
Clouds
Windchill 24 °F
Dew Point 27 °F
Humidity 96%
Rainfall 0.05 in
Snow Depth Not available.
7:34 AM 8:03 PM
Waning Crescent, 8% visible
METAR KMLP 251353Z AUTO VRB03KT 1/2SM -SN FZFG VV002 M02/M03 A2998 RMK AO2 SLP177 P0000 T10221028 $
Pressure 30.06 in
Visibility 0.5 miles
Clouds
Windchill 24 °F
Dew Point 27 °F
Humidity 96%
Rainfall 0.05 in
Snow Depth Not available.
7:34 AM 8:03 PM
Waning Crescent, 8% visible
METAR KMLP 251353Z AUTO VRB03KT 1/2SM -SN FZFG VV002 M02/M03 A2998 RMK AO2 SLP177 P0000 T10221028 $

Get Severe Weather Alerts

Thanks for signing up!

Be on the lookout for a verification email in your inbox.

You'll start receiving the daily forecast at 8 AM.

×

10-Day Weather Forecast

Almanac

Astronomy

Mar. 25, 2017 Rise Set
Actual Time
Civil Twilight
Nautical Twilight
Astronomical Twilight
Moon
Length of Visible Light
Length of Day
Tomorrow will be .
, % of the Moon is Illuminated

Today's Extremes

State Highs State Lows

Community

WunderPhotos

Upload Photos

1,962,540 photos uploaded!

WunderBlog® & News

Nearby

Air Quality

  Air Quality AQ Index Pollutant
Not available.

Snow Depth

Station Depth Elevation

Earthquake Activity

City Distance Mag. Time & Date
Minimum magnitude displayed is 2.5.

Earthquake Activity

City Distance Mag. Time & Date
Minimum magnitude displayed is 2.5.

Coastal Water Temperatures

Place Temperature

Stations

Nearby Weather Stations

Station Location Temp. Windchill Dew Point Humidity Wind Precip. Elev Updated Type
                   

Watches & Warnings

There are currently no watches in effect.